Santa Mónica, CA

10:20 AM PDT en Agosto 23, 2014 (GMT -0700)
Sunset Park | Change Station
CLOSE
Current Station
Estación meteorológica personal
Location: Santa Monica, CA
Altura: 150 ft
Estaciones meteorológicas cercanas
Aviso en curso: High Surf Advisory

Alt 150 ft 34.01 °N, 118.47 °W | Updated 14 minutes ago

Clear
Despejado
73.3 ° F
Sensación térmica 75 ° F
N
3.0
Viento Variable Viento desde SSO
Gusts 5.0 mph

Hoy
Alta -- | Baja -- ° F
--% Posibilidad de precipitaciones
Ayer
Alta -- | Baja -- ° F
Precip. -- pul
6:21 AM 7:31 PM
Creciente menguante, 3% visible
Presión 29.97 pul
Visibilidad 10.0 Millas
Nubes Despejado
Índice de calor 75 ° F
Punto de rocío 63 ° F
Humedad 70%
Precipitaciones 0.00 pul
Espesor de la nieve No disponible.
UV 4.2 de una escala de 12
Polen 5.80 de una escala de 12
Ozono Buena
Flu Activity No disponible.
METAR KSMO 231651Z 00000KT 10SM CLR 23/15 A2998 RMK AO2 SLP149 T02280150

More Conditions Fewer Conditions

Presión 29.97 pul
Visibilidad 10.0 Millas
Nubes Despejado
Índice de calor 75 ° F
Punto de rocío 63 ° F
Humedad 70%
Precipitaciones 0.00 pul
Espesor de la nieve No disponible.
UV 4.2 de una escala de 12
Polen 5.80 de una escala de 12
Ozono Buena
Flu Activity No disponible.
METAR KSMO 231651Z 00000KT 10SM CLR 23/15 A2998 RMK AO2 SLP149 T02280150

More Conditions Fewer Conditions

10-Day Weather Forecast

Almanac

Astronomía

Aug. 23, 2014 Salida Puesta
Hora real 6:21 AM PDT 7:31 PM PDT
Crepúsculo civil 5:55 AM PDT 7:57 PM PDT
Crepúsculo náutico 5:24 AM PDT 8:27 PM PDT
Crepúsculo astronómico 4:52 AM PDT 8:59 PM PDT
Luna 4:43 AM PDT 6:18 PM PDT
Horas de luz 14h 01m
Horas de luz
13h 09m
Tomorrow will be 1m 57s shorter.
Creciente menguante, 3% of the Moon is Illuminated
Hoy
Creciente menguante
Ago 25
Nueva
Sep 2
Cuarto creciente
Sep 8
Luna llena
Sep 15
Cuarto menguante

Extremos de hoy

Máximos del estado Bajos del estado

Community

WunderPhotos

Upload Photos

1,746,534 ¡fotos cargadas!

WunderBlogs® & News

By Dr. Jeff Masters
Director of Meteorology, Weather Underground
By Kari Strenfel
Meteorologist, Weather Underground
By Christopher C. Burt
Weather Historian, Weather Underground
August 23, 2014
August 23, 2014
August 23, 2014

Nearby

Calidad del aire

  Calidad del aire Índice AQ Contaminante
Ayer Buena
OZONE
Real Buena
OZONE
Domingo Buena
PM10
Domingo Buena
OZONE
Domingo Buena
CO
Domingo Buena
NO2

Grosos de nieve

Estación Profundido Altura
Sonora Pass 0 in 8800 ft
Summit Meadow 0 in 9122 ft
Monitor Pass 0 in 8350 ft
Forestdale Creek 1 in 8029 ft
Hagan's Meadow 0 in 8000 ft

Actividad de terremotos

Ciudad Distance Mag. Tiempo y dato
West Hills, California 17 Millas 2.5 4:21 AM PDT
2014-08-18
Big Bear City, California 97 Millas 3.7 9:55 PM PDT
2014-08-17
Magnitud mínima muestra es 2,5.

Temperaturas de aguas costeras

Lugar Temperatura
Santa Monica Pier 69.1 ° F
Los Angeles, CA 68.0 ° F
La Jolla, CA 71.1 ° F

Estaciones meteorológicas cercanas